Time;durP1;ratioP1;P1;durP2;ratioP2;P2;SDS_P1;SDS_P2;PMS_P1;PMS_P2;Temp;Humidity;BMP_temperature;BMP_pressure;BME280_temperature;BME280_humidity;BME280_pressure;Samples;Min_cycle;Max_cycle;Signal;HPM_P1;HPM_P2
2022/03/29 00:01:22;;;;;;;66.20;37.42;;;;;;;9.35;65.53;100366.63;5109052;28;20035;-30
2022/03/29 00:03:48;;;;;;;47.67;29.77;;;;;;;9.39;65.14;100378.50;5108979;28;20027;-34
2022/03/29 00:06:13;;;;;;;50.97;32.70;;;;;;;9.06;66.40;100357.97;5109169;28;20024;-31
2022/03/29 00:08:39;;;;;;;47.95;29.90;;;;;;;8.81;67.68;100376.34;5108792;28;20059;-29
2022/03/29 00:11:04;;;;;;;47.90;30.35;;;;;;;8.97;66.53;100359.16;5109033;28;20036;-29
2022/03/29 00:13:29;;;;;;;48.47;30.63;;;;;;;8.93;66.03;100352.59;5109017;28;20030;-30
2022/03/29 00:15:55;;;;;;;48.97;29.92;;;;;;;9.09;66.89;100362.88;5108828;28;20023;-31
2022/03/29 00:18:20;;;;;;;41.38;26.92;;;;;;;9.03;65.71;100379.66;5090358;28;20067;-30
2022/03/29 00:20:46;;;;;;;34.22;24.58;;;;;;;8.53;65.68;100368.44;5107330;28;20681;-31
2022/03/29 00:23:11;;;;;;;31.35;22.42;;;;;;;8.03;66.48;100356.09;5108399;28;20487;-29
2022/03/29 00:25:37;;;;;;;32.40;23.38;;;;;;;7.84;66.85;100356.78;5108473;28;20106;-29
2022/03/29 00:28:02;;;;;;;34.53;23.55;;;;;;;7.45;68.46;100376.69;5107057;28;20063;-30
2022/03/29 00:30:28;;;;;;;35.00;22.75;;;;;;;7.51;69.80;100369.81;5108602;28;20027;-28
2022/03/29 00:32:53;;;;;;;29.90;21.90;;;;;;;7.45;70.23;100345.66;5108186;28;20392;-29
2022/03/29 00:35:19;;;;;;;30.63;22.15;;;;;;;7.71;69.56;100351.38;5108705;28;20024;-32
2022/03/29 00:37:45;;;;;;;32.33;22.48;;;;;;;8.01;69.35;100366.09;5090261;28;20039;-37
2022/03/29 00:40:12;;;;;;;30.77;22.95;;;;;;;8.28;68.17;100366.25;5108496;28;20039;-29
2022/03/29 00:42:39;;;;;;;31.17;22.25;;;;;;;8.21;68.04;100352.09;5108452;28;20115;-31
2022/03/29 00:45:05;;;;;;;30.33;22.52;;;;;;;8.23;67.60;100347.41;5106117;28;20028;-29
2022/03/29 00:47:31;;;;;;;31.20;21.83;;;;;;;8.21;67.49;100354.75;5106789;28;20043;-34
2022/03/29 00:49:57;;;;;;;33.97;22.05;;;;;;;8.20;67.23;100355.78;5108262;28;20024;-30
2022/03/29 00:52:22;;;;;;;39.97;23.27;;;;;;;8.02;68.37;100356.28;5108184;28;20051;-30
2022/03/29 00:54:48;;;;;;;39.67;25.27;;;;;;;7.87;68.92;100351.09;5106833;28;20112;-32
2022/03/29 00:57:14;;;;;;;43.10;26.38;;;;;;;7.93;68.12;100337.03;5108415;28;20036;-29
2022/03/29 00:59:45;;;;;;;51.60;29.52;;;;;;;8.13;67.97;100352.25;5108251;28;20036;-29
2022/03/29 01:02:11;;;;;;;43.20;26.42;;;;;;;8.01;67.64;100342.19;5108057;28;20034;-32
2022/03/29 01:04:37;;;;;;;43.88;23.75;;;;;;;7.84;68.54;100303.66;5107996;28;20032;-31
2022/03/29 01:07:04;;;;;;;69.53;36.80;;;;;;;8.11;68.81;100333.88;5107656;28;20116;-29
2022/03/29 01:09:31;;;;;;;118.85;51.58;;;;;;;8.19;68.17;100324.91;5089796;28;20079;-31
2022/03/29 01:11:57;;;;;;;85.07;45.70;;;;;;;8.20;67.92;100331.88;5106767;28;20032;-29
2022/03/29 01:14:24;;;;;;;73.50;38.65;;;;;;;8.16;68.37;100325.31;5089499;28;20758;-31
2022/03/29 01:19:41;;;;;;;53.53;30.48;;;;;;;8.15;67.66;100318.34;5108058;28;20426;-31
2022/03/29 01:22:09;;;;;;;80.60;46.35;;;;;;;8.25;67.57;100313.50;5106750;28;20032;-29
2022/03/29 01:24:43;;;;;;;162.95;84.78;;;;;;;8.22;68.03;100309.41;5089570;28;20114;-32
2022/03/29 01:27:09;;;;;;;128.57;63.72;;;;;;;8.18;68.37;100312.66;5106082;28;20028;-29
2022/03/29 01:29:36;;;;;;;43.45;28.13;;;;;;;7.98;69.07;100312.53;5106332;28;20046;-31
2022/03/29 01:32:04;;;;;;;36.67;22.70;;;;;;;7.77;70.24;100289.56;5089335;28;20498;-32
2022/03/29 01:34:31;;;;;;;36.15;22.98;;;;;;;8.15;67.41;100289.97;5107708;28;20125;-30
2022/03/29 01:36:57;;;;;;;37.45;22.98;;;;;;;8.12;67.96;100313.44;5107817;28;20071;-30
2022/03/29 01:39:22;;;;;;;31.60;22.10;;;;;;;8.12;67.61;100289.53;5089441;28;20035;-29
2022/03/29 01:41:48;;;;;;;33.78;21.73;;;;;;;8.03;67.93;100305.63;5106543;28;20032;-33
2022/03/29 01:44:14;;;;;;;32.25;21.27;;;;;;;7.89;67.68;100288.00;5107642;28;20038;-30
2022/03/29 01:46:40;;;;;;;31.00;22.30;;;;;;;7.62;69.63;100293.13;5106047;28;20028;-34
2022/03/29 01:49:06;;;;;;;31.80;22.30;;;;;;;7.33;70.58;100272.09;5106326;28;20080;-29
2022/03/29 01:51:33;;;;;;;32.17;21.27;;;;;;;7.15;71.75;100269.88;5089340;28;20034;-29
2022/03/29 01:54:02;;;;;;;38.58;23.90;;;;;;;6.96;71.81;100288.09;5106330;28;20149;-32
2022/03/29 01:56:29;;;;;;;46.00;27.67;;;;;;;6.95;71.75;100273.22;5107034;28;20015;-28
2022/03/29 01:58:56;;;;;;;47.33;31.10;;;;;;;6.95;71.99;100280.34;5109889;28;20107;-32
2022/03/29 02:01:21;;;;;;;54.92;36.35;;;;;;;7.17;70.99;100270.53;5092697;28;20114;-28
2022/03/29 02:03:47;;;;;;;46.30;28.92;;;;;;;6.73;72.19;100260.97;5110019;28;20537;-31
2022/03/29 02:06:12;;;;;;;44.60;26.92;;;;;;;6.37;72.62;100278.50;5109875;28;20030;-29
2022/03/29 02:08:38;;;;;;;36.70;22.48;;;;;;;6.33;72.86;100285.16;5092865;28;20032;-30
2022/03/29 02:11:03;;;;;;;36.10;22.65;;;;;;;6.52;72.96;100278.47;5092490;28;20076;-34
2022/03/29 02:13:29;;;;;;;33.35;22.05;;;;;;;6.28;73.84;100261.09;5111451;28;20084;-34
2022/03/29 02:15:54;;;;;;;30.83;19.73;;;;;;;6.34;74.78;100276.22;5110952;28;20771;-29
2022/03/29 02:18:19;;;;;;;29.48;20.33;;;;;;;6.23;74.25;100274.03;5111240;28;20031;-29
2022/03/29 02:20:45;;;;;;;28.63;21.30;;;;;;;6.13;73.55;100276.16;5111497;28;20159;-29
2022/03/29 02:23:15;;;;;;;31.42;21.75;;;;;;;6.29;74.02;100275.94;5109340;28;20176;-29
2022/03/29 02:25:42;;;;;;;35.17;22.75;;;;;;;6.77;72.09;100259.56;5092546;28;20415;-29
2022/03/29 02:28:08;;;;;;;36.38;24.30;;;;;;;6.20;73.27;100242.66;5109232;28;20035;-28
2022/03/29 02:30:34;;;;;;;37.10;24.65;;;;;;;6.13;74.81;100231.16;5110594;28;20032;-29
2022/03/29 02:32:59;;;;;;;33.90;24.38;;;;;;;6.68;72.80;100221.78;5071677;28;20093;-33
2022/03/29 02:35:25;;;;;;;35.13;24.05;;;;;;;6.82;71.95;100234.16;5106291;28;20028;-28
2022/03/29 02:37:50;;;;;;;35.47;24.73;;;;;;;6.49;73.21;100249.69;5090450;28;20035;-29
2022/03/29 02:40:16;;;;;;;43.83;26.95;;;;;;;6.21;74.38;100236.34;5088726;28;20416;-29
2022/03/29 02:42:47;;;;;;;40.70;29.98;;;;;;;6.40;73.65;100243.69;5090190;28;20047;-29
2022/03/29 02:45:18;;;;;;;42.42;26.52;;;;;;;6.68;72.07;100242.97;5088835;28;20104;-30
2022/03/29 02:47:46;;;;;;;39.80;25.80;;;;;;;6.44;73.01;100254.75;5089029;28;20032;-29
2022/03/29 02:50:12;;;;;;;50.03;32.10;;;;;;;6.27;74.55;100245.38;5105839;28;20119;-31
2022/03/29 02:52:55;;;;;;;46.67;28.33;;;;;;;6.56;72.84;100239.16;5088764;28;20777;-29
2022/03/29 02:55:24;;;;;;;39.58;25.73;;;;;;;6.66;73.40;100223.81;5088359;28;20058;-31
2022/03/29 02:57:50;;;;;;;50.42;27.98;;;;;;;6.54;72.51;100225.28;5088814;28;20020;-29
2022/03/29 03:00:17;;;;;;;43.90;27.33;;;;;;;6.77;72.44;100228.59;5105501;28;20036;-31
2022/03/29 03:02:43;;;;;;;44.13;28.55;;;;;;;6.96;72.59;100239.56;5105485;28;20024;-32
2022/03/29 03:05:08;;;;;;;42.58;27.60;;;;;;;6.74;72.69;100214.88;5089616;28;20499;-30
2022/03/29 03:07:34;;;;;;;48.85;31.80;;;;;;;7.13;70.75;100209.09;5089612;28;20077;-32
2022/03/29 03:09:59;;;;;;;46.70;29.95;;;;;;;7.17;69.73;100214.81;5088917;28;20031;-29
2022/03/29 03:12:25;;;;;;;60.25;35.90;;;;;;;6.93;70.03;100224.03;5089825;28;20028;-29
2022/03/29 03:14:50;;;;;;;76.25;43.78;;;;;;;7.04;70.37;100226.16;5089598;28;20035;-30
2022/03/29 03:17:16;;;;;;;75.88;42.95;;;;;;;6.82;69.44;100212.94;5089657;28;20036;-31
2022/03/29 03:19:41;;;;;;;72.22;43.67;;;;;;;6.67;70.70;100209.53;5089722;28;20028;-30
2022/03/29 03:22:06;;;;;;;136.10;78.40;;;;;;;6.86;70.22;100223.16;5087939;28;20017;-31
2022/03/29 03:24:32;;;;;;;108.20;65.18;;;;;;;6.60;70.91;100216.59;5089254;28;20031;-30
2022/03/29 03:26:57;;;;;;;61.72;38.25;;;;;;;6.67;71.08;100230.72;5089155;28;20032;-29
2022/03/29 03:29:23;;;;;;;44.95;31.23;;;;;;;6.44;71.98;100222.97;5089752;28;20036;-29
2022/03/29 03:31:49;;;;;;;46.25;28.77;;;;;;;6.67;71.05;100225.44;5089713;28;20097;-30
2022/03/29 03:34:15;;;;;;;40.17;28.35;;;;;;;6.63;70.17;100205.63;5106461;28;20043;-29
2022/03/29 03:36:41;;;;;;;44.65;31.02;;;;;;;6.84;69.17;100215.38;5108198;28;20119;-30
2022/03/29 03:39:06;;;;;;;44.40;32.47;;;;;;;6.62;69.89;100222.53;5108397;28;20126;-28
2022/03/29 03:41:32;;;;;;;40.65;31.42;;;;;;;6.18;69.26;100194.34;5109211;28;20084;-29
2022/03/29 03:43:57;;;;;;;45.50;33.10;;;;;;;6.39;71.07;100217.41;5108011;28;20431;-32
2022/03/29 03:46:23;;;;;;;43.53;29.65;;;;;;;6.17;72.38;100216.53;5107919;28;20479;-33
2022/03/29 03:48:49;;;;;;;46.33;27.80;;;;;;;6.32;71.74;100219.97;5108958;28;20023;-28
2022/03/29 03:51:14;;;;;;;41.45;28.73;;;;;;;6.74;70.21;100218.38;5109271;28;20031;-29
2022/03/29 03:53:40;;;;;;;37.40;25.38;;;;;;;6.54;70.62;100219.97;5109313;28;20479;-30
2022/03/29 03:56:05;;;;;;;38.58;26.70;;;;;;;6.73;70.27;100216.72;5107723;28;20419;-30
2022/03/29 03:58:31;;;;;;;38.45;26.40;;;;;;;6.75;70.69;100206.75;5107770;28;20028;-30
2022/03/29 04:00:56;;;;;;;38.90;25.92;;;;;;;6.81;70.64;100221.88;5108819;28;20024;-30
2022/03/29 04:03:22;;;;;;;38.78;26.08;;;;;;;6.88;69.53;100231.72;5109303;28;20483;-31
2022/03/29 04:05:48;;;;;;;41.65;28.15;;;;;;;6.76;70.59;100210.22;5108726;28;20486;-29
2022/03/29 04:08:13;;;;;;;50.25;29.83;;;;;;;6.30;72.10;100219.34;5107681;28;20559;-31
2022/03/29 04:10:40;;;;;;;47.10;28.23;;;;;;;6.54;71.43;100226.13;5108686;28;20114;-29
2022/03/29 04:13:06;;;;;;;56.92;32.15;;;;;;;6.86;70.42;100223.16;5090312;28;20070;-29
2022/03/29 04:15:32;;;;;;;38.85;27.40;;;;;;;6.77;70.01;100230.41;5108784;28;20062;-31
2022/03/29 04:18:00;;;;;;;36.28;25.75;;;;;;;6.83;69.13;100211.09;5108784;28;20067;-30
2022/03/29 04:20:25;;;;;;;38.00;26.20;;;;;;;6.99;69.05;100217.97;5108597;28;20015;-30
2022/03/29 04:22:51;;;;;;;38.17;25.60;;;;;;;6.93;69.31;100201.00;5107922;28;20031;-29
2022/03/29 04:25:17;;;;;;;39.20;26.52;;;;;;;7.16;68.44;100219.31;5108557;28;20080;-29
2022/03/29 04:27:42;;;;;;;36.88;25.35;;;;;;;6.90;68.87;100197.91;5107003;28;20423;-30
2022/03/29 04:30:09;;;;;;;48.63;29.33;;;;;;;6.79;69.90;100218.59;5108412;28;20035;-30
2022/03/29 04:32:36;;;;;;;142.75;60.30;;;;;;;6.42;71.41;100222.34;5106580;28;20043;-32
2022/03/29 04:35:02;;;;;;;50.13;30.70;;;;;;;5.97;71.55;100226.91;5106689;28;20058;-29
2022/03/29 04:37:28;;;;;;;42.22;28.45;;;;;;;5.59;72.29;100222.50;5106802;28;20369;-32
2022/03/29 04:39:53;;;;;;;44.28;30.40;;;;;;;5.61;72.32;100217.03;5108424;28;20027;-31
2022/03/29 04:42:19;;;;;;;47.40;28.05;;;;;;;5.44;72.28;100211.91;5108145;28;20028;-29
2022/03/29 04:44:45;;;;;;;41.65;28.48;;;;;;;5.40;72.21;100197.41;5108064;28;20114;-28
2022/03/29 04:47:11;;;;;;;67.22;41.38;;;;;;;5.97;71.99;100229.56;5107827;28;20530;-36
2022/03/29 04:49:36;;;;;;;46.28;30.33;;;;;;;5.72;71.93;100232.47;5107853;28;20024;-29
2022/03/29 04:52:02;;;;;;;44.90;28.45;;;;;;;5.36;73.88;100227.06;5107800;28;20446;-30
2022/03/29 04:54:29;;;;;;;41.40;27.63;;;;;;;5.56;73.00;100230.81;5107699;28;20024;-28
2022/03/29 04:56:54;;;;;;;41.65;28.20;;;;;;;5.56;72.89;100236.09;5089530;28;20054;-29
2022/03/29 04:59:20;;;;;;;39.65;26.55;;;;;;;5.37;73.36;100233.97;5108055;28;20483;-29
2022/03/29 05:01:45;;;;;;;36.42;24.00;;;;;;;5.23;74.00;100225.84;5107969;28;20063;-29
2022/03/29 05:04:11;;;;;;;34.10;23.02;;;;;;;5.10;73.56;100207.13;5108160;28;20055;-30
2022/03/29 05:06:36;;;;;;;38.83;23.15;;;;;;;5.55;73.52;100226.50;5107144;28;20031;-29
2022/03/29 05:09:03;;;;;;;40.35;26.33;;;;;;;5.66;73.23;100232.34;5107692;28;20739;-29
2022/03/29 05:11:29;;;;;;;41.13;27.83;;;;;;;6.04;71.50;100231.25;5108186;28;20160;-29
2022/03/29 05:13:55;;;;;;;46.60;29.88;;;;;;;5.87;71.62;100229.81;5108912;28;20554;-38
2022/03/29 05:16:20;;;;;;;43.53;30.35;;;;;;;5.84;72.81;100225.72;5113382;28;20031;-29
2022/03/29 05:18:46;;;;;;;56.38;32.15;;;;;;;5.93;73.27;100210.53;5107811;28;20494;-34
2022/03/29 05:21:12;;;;;;;41.13;30.75;;;;;;;5.98;72.41;100217.94;5107317;28;20028;-33
2022/03/29 05:23:38;;;;;;;42.38;28.65;;;;;;;5.95;72.43;100216.50;5089523;28;20038;-32
2022/03/29 05:26:03;;;;;;;36.20;23.75;;;;;;;5.94;73.85;100232.53;5107980;28;20031;-29
2022/03/29 05:28:29;;;;;;;41.58;24.77;;;;;;;5.95;74.86;100228.91;5089445;28;20105;-34
2022/03/29 05:30:54;;;;;;;38.72;24.80;;;;;;;5.88;74.67;100222.69;5107594;28;20552;-30
2022/03/29 05:33:19;;;;;;;32.03;25.63;;;;;;;5.81;76.80;100236.66;5121115;27;20043;-31
2022/03/29 05:35:45;;;;;;;37.70;25.48;;;;;;;5.89;77.42;100238.38;5111596;28;20051;-29
2022/03/29 05:38:11;;;;;;;35.13;23.65;;;;;;;6.04;77.21;100236.56;5110301;28;20038;-32
2022/03/29 05:40:37;;;;;;;35.85;24.67;;;;;;;6.36;76.50;100237.13;5093127;28;20115;-31
2022/03/29 05:43:07;;;;;;;34.28;24.23;;;;;;;6.46;76.28;100217.44;5092881;28;20085;-32
2022/03/29 05:45:33;;;;;;;36.83;25.23;;;;;;;6.70;75.65;100209.16;5092808;28;20424;-29
2022/03/29 05:50:42;;;;;;;38.70;26.42;;;;;;;7.29;74.12;100228.38;5111453;28;20498;-30
2022/03/29 05:53:08;;;;;;;39.55;27.20;;;;;;;7.40;74.29;100210.09;5111018;28;20031;-33
2022/03/29 05:55:34;;;;;;;45.53;29.27;;;;;;;7.67;72.35;100215.56;5111270;28;20433;-31
2022/03/29 05:57:59;;;;;;;47.50;30.20;;;;;;;7.86;72.13;100203.41;5092718;28;20040;-36
2022/03/29 06:00:25;;;;;;;56.95;33.45;;;;;;;8.17;71.90;100226.00;5110995;28;20023;-30
2022/03/29 06:02:52;;;;;;;59.17;37.65;;;;;;;8.57;70.06;100215.50;5092397;28;20123;-31
2022/03/29 06:05:18;;;;;;;49.10;30.90;;;;;;;8.69;69.41;100219.22;5092824;28;20020;-31
2022/03/29 06:07:44;;;;;;;51.67;31.45;;;;;;;8.80;69.30;100220.44;5111140;28;20039;-29
2022/03/29 06:10:11;;;;;;;48.20;30.45;;;;;;;9.17;67.57;100195.06;5092722;28;20027;-29
2022/03/29 06:12:37;;;;;;;48.65;31.58;;;;;;;9.14;69.32;100203.47;5111135;28;20041;-29
2022/03/29 06:15:08;;;;;;;43.25;31.67;;;;;;;9.48;67.29;100217.56;5092207;28;20027;-29
2022/03/29 06:17:34;;;;;;;49.63;31.48;;;;;;;9.48;67.54;100216.72;5110616;28;20055;-29
2022/03/29 06:20:03;;;;;;;47.92;32.50;;;;;;;9.68;67.92;100212.16;5092558;28;20060;-31
2022/03/29 06:22:28;;;;;;;47.40;33.72;;;;;;;10.02;67.02;100221.69;5110793;28;20026;-30
2022/03/29 06:24:54;;;;;;;46.60;32.65;;;;;;;10.10;65.30;100214.50;5110928;28;20043;-30
2022/03/29 06:27:19;;;;;;;48.10;32.65;;;;;;;10.37;65.44;100216.00;5110550;28;20031;-30
2022/03/29 06:29:45;;;;;;;49.58;31.70;;;;;;;10.29;65.61;100210.91;5110820;28;20035;-31
2022/03/29 06:32:10;;;;;;;42.05;28.17;;;;;;;10.65;64.95;100212.16;5091591;28;20035;-31
2022/03/29 06:34:36;;;;;;;39.97;27.50;;;;;;;10.71;63.80;100203.28;5110422;28;20533;-34
2022/03/29 06:37:02;;;;;;;42.33;29.00;;;;;;;11.03;62.85;100201.41;5110172;28;20019;-32
2022/03/29 06:39:28;;;;;;;47.35;29.13;;;;;;;11.12;61.58;100209.94;5092136;28;20077;-30
2022/03/29 06:41:55;;;;;;;44.05;29.00;;;;;;;11.43;60.66;100208.22;5091595;28;20046;-29
2022/03/29 06:44:21;;;;;;;45.15;28.98;;;;;;;11.51;61.11;100207.94;5109131;28;20024;-35
2022/03/29 06:46:49;;;;;;;41.97;28.58;;;;;;;11.54;62.71;100212.81;5110198;28;20973;-29
2022/03/29 06:49:15;;;;;;;;;;;;;;;11.77;63.13;100196.16;5092380;28;20507;-29
2022/03/29 06:51:41;;;;;;;40.78;30.00;;;;;;;11.88;62.92;100193.78;5110090;28;19984;-28
2022/03/29 06:54:06;;;;;;;41.70;28.02;;;;;;;11.86;61.89;100210.00;5110118;28;20051;-33
2022/03/29 06:56:32;;;;;;;39.20;27.13;;;;;;;12.03;62.17;100195.03;5110302;28;20480;-29
2022/03/29 06:59:00;;;;;;;39.13;26.50;;;;;;;11.76;61.95;100185.69;5109652;28;20024;-32
2022/03/29 07:01:26;;;;;;;41.22;27.38;;;;;;;12.29;61.09;100195.72;5091604;28;20023;-28
2022/03/29 07:03:51;;;;;;;43.95;28.73;;;;;;;12.38;60.39;100175.66;5110217;28;20555;-33
2022/03/29 07:06:17;;;;;;;42.13;27.88;;;;;;;12.47;60.90;100197.53;5091624;28;20124;-32
2022/03/29 07:11:16;;;;;;;41.13;27.65;;;;;;;12.58;59.88;100190.56;5110046;28;20028;-32
2022/03/29 07:11:27;;;;;;;40.95;27.15;;;;;;;12.84;59.52;100174.09;5109775;28;20032;-30
2022/03/29 07:13:53;;;;;;;55.95;33.78;;;;;;;13.02;59.55;100183.91;5109761;28;20020;-29
2022/03/29 07:16:20;;;;;;;42.90;28.08;;;;;;;13.21;60.38;100181.91;5109826;28;20081;-31
2022/03/29 07:18:45;;;;;;;44.25;26.30;;;;;;;13.49;57.75;100161.69;5091131;28;20078;-29
2022/03/29 07:21:11;;;;;;;33.78;23.92;;;;;;;13.35;56.18;100165.66;5109297;28;20062;-32
2022/03/29 07:23:37;;;;;;;55.67;35.25;;;;;;;13.53;56.22;100184.28;5109576;28;20547;-33
2022/03/29 07:26:04;;;;;;;29.55;21.83;;;;;;;14.04;55.20;100177.25;5090992;28;20460;-33
2022/03/29 07:28:29;;;;;;;31.08;23.17;;;;;;;13.98;55.04;100170.16;5090544;28;20034;-32
2022/03/29 07:30:54;;;;;;;36.13;23.13;;;;;;;14.30;55.54;100171.53;5109206;28;20020;-29
2022/03/29 07:33:20;;;;;;;32.30;20.70;;;;;;;14.09;53.87;100165.81;5109224;28;20054;-33
2022/03/29 07:35:46;;;;;;;25.30;18.98;;;;;;;14.16;55.65;100157.59;5109166;28;20035;-29
2022/03/29 07:38:13;;;;;;;31.30;18.95;;;;;;;14.06;52.73;100148.34;5090714;28;20034;-32
2022/03/29 07:40:40;;;;;;;27.05;17.67;;;;;;;14.15;51.33;100156.00;5109058;28;20028;-31
2022/03/29 07:43:06;;;;;;;26.13;16.88;;;;;;;14.62;50.72;100147.72;5090484;28;20027;-29
2022/03/29 07:45:32;;;;;;;26.77;17.25;;;;;;;14.76;50.48;100142.84;5090729;28;20531;-30
2022/03/29 07:47:58;;;;;;;26.67;15.70;;;;;;;14.92;49.59;100151.97;5109179;28;20031;-30
2022/03/29 07:50:26;;;;;;;25.30;16.15;;;;;;;14.89;49.52;100141.69;5109032;28;20028;-32
2022/03/29 07:52:53;;;;;;;26.02;17.60;;;;;;;15.06;49.35;100147.88;5090264;28;20015;-29
2022/03/29 07:55:19;;;;;;;25.58;16.20;;;;;;;15.19;49.13;100144.81;5090157;28;20575;-33
2022/03/29 07:57:45;;;;;;;27.52;17.70;;;;;;;15.26;49.20;100140.09;5090672;28;20027;-29
2022/03/29 08:03:04;;;;;;;25.40;17.00;;;;;;;15.10;47.24;100140.94;5108558;28;20027;-31
2022/03/29 08:05:30;;;;;;;25.73;16.45;;;;;;;15.43;46.78;100141.94;5109030;28;20046;-29
2022/03/29 08:07:57;;;;;;;24.45;16.48;;;;;;;15.41;45.37;100128.72;5089845;28;20520;-29
2022/03/29 08:10:24;;;;;;;26.85;17.45;;;;;;;15.60;46.13;100125.72;5090359;28;20641;-31
2022/03/29 08:12:49;;;;;;;26.73;17.63;;;;;;;16.01;46.55;100131.59;5090117;28;20030;-30
2022/03/29 08:15:15;;;;;;;30.00;17.73;;;;;;;16.02;44.91;100109.84;5108535;28;20027;-30
2022/03/29 08:17:41;;;;;;;28.98;16.30;;;;;;;16.48;44.50;100114.81;5108638;28;20027;-29
2022/03/29 08:20:07;;;;;;;28.25;17.40;;;;;;;16.61;42.84;100125.16;5108312;28;20038;-29
2022/03/29 08:22:33;;;;;;;27.75;17.48;;;;;;;16.66;44.63;100122.50;5089871;28;20016;-29
2022/03/29 08:25:00;;;;;;;25.05;18.25;;;;;;;16.63;43.24;100127.56;5108130;28;20035;-30
2022/03/29 08:27:26;;;;;;;22.13;16.08;;;;;;;16.74;44.55;100129.28;5089936;28;20110;-28
2022/03/29 08:29:51;;;;;;;24.10;16.38;;;;;;;16.61;43.08;100108.19;5108204;28;20119;-29
2022/03/29 08:32:17;;;;;;;27.55;16.25;;;;;;;16.38;45.39;100120.91;5089611;28;20078;-31
2022/03/29 08:34:43;;;;;;;22.40;15.73;;;;;;;16.41;44.60;100108.84;5090118;28;20701;-29
2022/03/29 08:37:08;;;;;;;22.35;15.88;;;;;;;16.80;43.38;100111.28;5107730;28;20024;-33
2022/03/29 08:39:35;;;;;;;23.25;15.82;;;;;;;16.60;44.12;100093.09;5108301;28;20056;-32
2022/03/29 08:42:08;;;;;;;24.63;16.40;;;;;;;16.74;44.29;100083.50;5089582;28;20032;-31
2022/03/29 08:44:34;;;;;;;19.77;16.23;;;;;;;17.21;43.59;100090.00;5089802;28;20036;-31
2022/03/29 08:47:01;;;;;;;27.38;15.95;;;;;;;17.62;42.64;100090.97;5107577;28;20024;-31
2022/03/29 08:49:27;;;;;;;46.33;32.97;;;;;;;17.79;44.53;100089.94;5107811;28;20028;-28
2022/03/29 08:51:53;;;;;;;30.98;24.05;;;;;;;17.84;43.89;100065.72;5101612;27;20117;-29
2022/03/29 08:54:19;;;;;;;33.50;25.40;;;;;;;17.79;43.78;100062.97;5128741;27;20077;-34
2022/03/29 08:56:46;;;;;;;67.05;49.90;;;;;;;18.07;42.19;100076.00;5106128;28;20055;-31
2022/03/29 08:59:12;;;;;;;25.33;16.15;;;;;;;18.06;42.98;100079.78;5107196;27;20087;-29
2022/03/29 09:01:37;;;;;;;22.20;14.25;;;;;;;18.20;41.83;100068.44;5109682;28;20047;-31
2022/03/29 09:04:11;;;;;;;20.35;15.38;;;;;;;18.16;42.65;100061.97;5128150;27;20107;-31
2022/03/29 09:07:00;;;;;;;20.90;13.82;;;;;;;18.52;40.11;100070.06;5127939;27;20031;-31
2022/03/29 09:09:40;;;;;;;23.63;14.32;;;;;;;18.47;39.76;100058.19;5109920;28;20023;-32
2022/03/29 09:12:19;;;;;;;25.00;14.60;;;;;;;18.53;43.00;100050.06;5102994;28;20066;-29
2022/03/29 09:14:55;;;;;;;32.42;18.70;;;;;;;18.69;42.88;100048.97;5089438;28;20027;-31
2022/03/29 09:17:40;;;;;;;19.55;13.18;;;;;;;18.50;41.22;100046.03;5107818;28;20503;-29
2022/03/29 09:20:26;;;;;;;22.95;13.13;;;;;;;18.77;39.34;100048.41;5089381;28;20558;-31
2022/03/29 09:22:55;;;;;;;18.02;12.15;;;;;;;18.84;38.04;100032.78;5088899;28;20072;-29
2022/03/29 09:25:34;;;;;;;17.13;11.27;;;;;;;18.86;37.73;100027.91;5089426;28;20487;-32
2022/03/29 09:28:11;;;;;;;33.47;11.20;;;;;;;19.33;38.68;100008.78;5107595;28;20036;-36
2022/03/29 09:30:43;;;;;;;17.05;10.82;;;;;;;19.78;38.54;100020.47;5089168;28;20023;-30
2022/03/29 09:33:14;;;;;;;15.25;10.13;;;;;;;19.26;38.54;100014.50;5107134;28;20043;-29
2022/03/29 09:35:53;;;;;;;16.25;10.77;;;;;;;19.43;36.72;100014.97;5088997;28;20036;-32
2022/03/29 09:38:23;;;;;;;18.77;10.25;;;;;;;19.61;36.80;100012.69;5089125;28;20119;-29
2022/03/29 09:40:49;;;;;;;15.57;10.82;;;;;;;20.07;34.97;99985.31;5088776;28;20035;-30
2022/03/29 09:43:14;;;;;;;15.65;9.80;;;;;;;20.54;34.93;99994.63;5088874;28;20054;-30
2022/03/29 09:45:47;;;;;;;16.55;10.95;;;;;;;20.61;35.42;99994.31;5106112;28;20502;-33
2022/03/29 09:48:24;;;;;;;16.45;11.25;;;;;;;20.90;33.84;99977.19;5107861;28;20027;-30
2022/03/29 09:50:55;;;;;;;16.25;10.95;;;;;;;21.12;33.74;99995.63;5088853;28;20034;-29
2022/03/29 09:53:35;;;;;;;16.27;9.43;;;;;;;21.55;31.20;99996.41;5089170;28;20543;-35
2022/03/29 09:56:02;;;;;;;15.30;9.63;;;;;;;21.93;32.45;99982.81;5088957;28;20575;-32
2022/03/29 09:58:28;;;;;;;14.68;9.85;;;;;;;21.73;31.26;99983.13;5089105;28;20039;-30
2022/03/29 10:00:55;;;;;;;13.70;10.13;;;;;;;20.99;32.33;99978.16;5107245;28;20027;-30
2022/03/29 10:03:23;;;;;;;15.33;9.60;;;;;;;20.87;34.16;99971.25;5107462;28;20237;-31
2022/03/29 10:05:50;;;;;;;19.88;9.80;;;;;;;21.19;32.13;99967.06;5072505;28;20055;-30
2022/03/29 10:11:04;;;;;;;14.98;9.80;;;;;;;21.03;31.12;99969.16;5107094;28;20058;-29
2022/03/29 10:13:30;;;;;;;12.43;8.98;;;;;;;20.55;31.68;99939.34;5107239;28;20077;-28
2022/03/29 10:15:56;;;;;;;14.20;9.15;;;;;;;21.16;30.60;99945.94;5107181;28;20030;-33
2022/03/29 10:18:25;;;;;;;14.73;8.95;;;;;;;21.25;30.20;99948.81;5109153;28;20035;-37
2022/03/29 10:20:52;;;;;;;13.50;9.00;;;;;;;21.52;30.36;99937.31;5110510;28;20039;-28
2022/03/29 10:23:21;;;;;;;13.90;8.48;;;;;;;21.91;31.04;99932.63;5092124;28;20031;-29
2022/03/29 10:25:48;;;;;;;13.52;8.50;;;;;;;22.26;28.98;99928.50;5110915;28;20529;-32
2022/03/29 10:28:14;;;;;;;12.38;8.48;;;;;;;22.44;28.92;99938.47;5092326;28;20120;-29
2022/03/29 10:30:41;;;;;;;12.23;8.45;;;;;;;22.43;27.91;99911.59;5092385;28;20055;-32
2022/03/29 10:33:26;;;;;;;14.75;8.63;;;;;;;22.56;28.62;99920.88;5091682;28;20036;-31
2022/03/29 10:36:05;;;;;;;14.48;8.30;;;;;;;22.89;28.46;99915.31;5092057;28;20039;-31
2022/03/29 10:38:43;;;;;;;13.90;9.05;;;;;;;22.92;28.19;99911.94;5092128;28;20491;-32
2022/03/29 10:41:29;;;;;;;13.02;8.25;;;;;;;23.02;27.10;99901.69;5109852;28;20032;-31
2022/03/29 10:44:04;;;;;;;15.35;8.60;;;;;;;23.32;28.92;99893.16;5091916;28;20056;-33
2022/03/29 10:46:39;;;;;;;14.70;8.60;;;;;;;23.67;27.30;99886.81;5110087;28;20417;-29
2022/03/29 10:49:32;;;;;;;18.88;9.35;;;;;;;24.00;27.90;99878.38;5091711;28;20591;-29
2022/03/29 10:52:06;;;;;;;14.57;8.75;;;;;;;23.95;25.84;99872.28;5091882;28;20023;-31
2022/03/29 10:54:41;;;;;;;14.32;9.30;;;;;;;23.76;27.31;99864.28;5110308;28;20090;-32
2022/03/29 10:57:29;;;;;;;12.45;8.77;;;;;;;24.05;26.41;99863.84;5091567;28;20172;-30
2022/03/29 11:00:06;;;;;;;12.93;8.20;;;;;;;23.74;26.22;99844.72;5091660;28;20027;-32
2022/03/29 11:02:32;;;;;;;;;;;;;;;23.75;26.35;99859.97;5092071;28;20435;-35
2022/03/29 11:05:12;;;;;;;12.40;8.35;;;;;;;23.99;26.40;99852.28;5109167;28;20427;-31
2022/03/29 11:07:52;;;;;;;13.77;8.27;;;;;;;24.32;24.94;99851.13;5110132;28;20038;-35
2022/03/29 11:10:23;;;;;;;13.75;7.68;;;;;;;24.73;23.92;99852.69;5109962;28;20495;-33
2022/03/29 11:12:53;;;;;;;12.15;6.90;;;;;;;24.70;24.10;99854.09;5109908;28;20032;-29
2022/03/29 11:15:25;;;;;;;11.60;6.88;;;;;;;25.06;23.47;99850.28;5091264;28;20131;-32
2022/03/29 11:17:55;;;;;;;13.55;6.40;;;;;;;24.35;23.14;99843.09;5110035;28;20047;-30
2022/03/29 11:20:40;;;;;;;15.52;6.97;;;;;;;24.82;22.57;99832.44;5109920;28;20105;-28
2022/03/29 11:23:08;;;;;;;11.63;6.43;;;;;;;24.81;22.71;99830.84;5091131;28;20487;-29
2022/03/29 11:25:39;;;;;;;12.57;7.10;;;;;;;24.69;24.33;99822.50;5091116;28;20032;-29
2022/03/29 11:28:06;;;;;;;12.32;6.78;;;;;;;24.61;23.22;99817.84;5091030;28;20039;-33
2022/03/29 11:30:34;;;;;;;13.60;7.28;;;;;;;24.68;23.35;99801.81;5108776;28;20035;-32